^^
Grace C. Lehan Memorial Weather Station Historical Data
Daily Summary for February 12, 2021 Units:  Both    English   Metric
Daily Weekly Monthly Yearly
  High: Low: Average:
Temperature: 48.8 °F /  9.3 °C 47.3 °F /  8.5 °C 48.2 °F /  9 °C
Dew Point: 34 °F /  1.1 °C 33.4 °F /  0.8 °C 33.6 °F /  0.9 °C
Humidity: 59.3% 55% 57%
Wind Speed: 3.9mph /  6.3km/h - 1.4mph /  2.3km/h
Wind Gust: 15mph /  24.1km/h - -
Wind- - WNW
Pressure: 30.04 in /  1017.2 hPa 30.02 in /  1016.5 hPa -
Precipitation: 0.00 in /  0 mm    
 
 
Tabular Data for February 12, 2021
Time Temperature Dew Point Pressure Wind Wind Speed Wind Gust Humidity Rainfall Rate (Hourly) solar
00:04 48.8 °F /  9.3 °C 33.4 °F /  0.8 °C 30.02in /  1016.5hPa NW 0.6mph /  1km/h 3mph /  4.8km/h 55% 0.00in /  0mm 0 W/m2
00:09 48.8 °F /  9.3 °C 33.4 °F /  0.8 °C 30.02in /  1016.5hPa WNW 1.8mph /  2.9km/h 7mph /  11.3km/h 55% 0.00in /  0mm 0 W/m2
00:14 48.8 °F /  9.3 °C 33.4 °F /  0.8 °C 30.03in /  1016.8hPa WNW 0.4mph /  0.6km/h 7mph /  11.3km/h 55% 0.00in /  0mm 0 W/m2
00:19 48.8 °F /  9.3 °C 33.4 °F /  0.8 °C 30.03in /  1016.8hPa WNW 1mph /  1.6km/h 9mph /  14.5km/h 55% 0.00in /  0mm 0 W/m2
00:24 48.8 °F /  9.3 °C 33.4 °F /  0.8 °C 30.03in /  1016.8hPa WNW 1.5mph /  2.4km/h 9mph /  14.5km/h 55% 0.00in /  0mm 0 W/m2
00:29 48.8 °F /  9.3 °C 33.4 °F /  0.8 °C 30.03in /  1016.8hPa WNW 2.3mph /  3.7km/h 10mph /  16.1km/h 55% 0.00in /  0mm 0 W/m2
00:34 48.8 °F /  9.3 °C 33.4 °F /  0.8 °C 30.04in /  1017.2hPa WNW 1.2mph /  1.9km/h 10mph /  16.1km/h 55% 0.00in /  0mm 0 W/m2
00:39 48.8 °F /  9.3 °C 33.4 °F /  0.8 °C 30.04in /  1017.2hPa WNW 3.1mph /  5km/h 15mph /  24.1km/h 55% 0.00in /  0mm 0 W/m2
00:44 48.8 °F /  9.3 °C 33.4 °F /  0.8 °C 30.04in /  1017.2hPa WNW 1.7mph /  2.7km/h 15mph /  24.1km/h 55% 0.00in /  0mm 0 W/m2
00:49 48.8 °F /  9.3 °C 33.4 °F /  0.8 °C 30.03in /  1016.8hPa WNW 1.8mph /  2.9km/h 15mph /  24.1km/h 55.2% 0.00in /  0mm 0 W/m2
00:54 48.8 °F /  9.3 °C 33.5 °F /  0.8 °C 30.03in /  1016.8hPa WNW 2mph /  3.2km/h 15mph /  24.1km/h 55.3% 0.00in /  0mm 0 W/m2
00:59 48.7 °F /  9.3 °C 33.5 °F /  0.8 °C 30.03in /  1016.8hPa WNW 3.9mph /  6.3km/h 15mph /  24.1km/h 55.5% 0.00in /  0mm 0 W/m2
01:04 48.7 °F /  9.3 °C 33.5 °F /  0.8 °C 30.03in /  1016.8hPa West 1.5mph /  2.4km/h 15mph /  24.1km/h 55.5% 0.00in /  0mm 0 W/m2
01:09 48.6 °F /  9.2 °C 33.7 °F /  0.9 °C 30.03in /  1016.8hPa West 3.3mph /  5.3km/h 11mph /  17.7km/h 56% 0.00in /  0mm 0 W/m2
01:14 48.6 °F /  9.2 °C 33.6 °F /  0.9 °C 30.03in /  1016.8hPa West 1.7mph /  2.7km/h 11mph /  17.7km/h 56% 0.00in /  0mm 0 W/m2
01:19 48.5 °F /  9.2 °C 33.7 °F /  0.9 °C 30.03in /  1016.8hPa WNW 1.4mph /  2.3km/h 11mph /  17.7km/h 56.5% 0.00in /  0mm 0 W/m2
01:24 48.4 °F /  9.1 °C 33.4 °F /  0.8 °C 30.03in /  1016.8hPa WSW 0.9mph /  1.4km/h 11mph /  17.7km/h 56% 0.00in /  0mm 0 W/m2
01:29 48.3 °F /  9.1 °C 33.5 °F /  0.8 °C 30.03in /  1016.8hPa WNW 0.2mph /  0.3km/h 11mph /  17.7km/h 56.4% 0.00in /  0mm 0 W/m2
01:34 48.2 °F /  9 °C 33.7 °F /  0.9 °C 30.03in /  1016.8hPa NW 0.8mph /  1.3km/h 11mph /  17.7km/h 57% 0.00in /  0mm 0 W/m2
01:39 48.1 °F /  8.9 °C 33.5 °F /  0.8 °C 30.03in /  1016.8hPa WNW 0.2mph /  0.3km/h 5mph /  8km/h 56.8% 0.00in /  0mm 0 W/m2
01:44 48 °F /  8.9 °C 33.7 °F /  0.9 °C 30.03in /  1016.8hPa Calm   5mph /  8km/h 57.4% 0.00in /  0mm 0 W/m2
01:49 47.8 °F /  8.8 °C 33.7 °F /  0.9 °C 30.03in /  1016.8hPa WNW 0.4mph /  0.6km/h 5mph /  8km/h 57.7% 0.00in /  0mm 0 W/m2
01:54 47.7 °F /  8.7 °C 33.7 °F /  0.9 °C 30.03in /  1016.8hPa Calm   5mph /  8km/h 58% 0.00in /  0mm 0 W/m2
01:59 47.6 °F /  8.7 °C 33.6 °F /  0.9 °C 30.02in /  1016.5hPa West 2.3mph /  3.7km/h 10mph /  16.1km/h 58% 0.00in /  0mm 0 W/m2
02:04 47.5 °F /  8.6 °C 33.8 °F /  1 °C 30.02in /  1016.5hPa WNW 2.6mph /  4.2km/h 10mph /  16.1km/h 58.9% 0.00in /  0mm 0 W/m2
02:09 47.5 °F /  8.6 °C 33.9 °F /  1.1 °C 30.03in /  1016.8hPa WNW 0.9mph /  1.4km/h 10mph /  16.1km/h 59% 0.00in /  0mm 0 W/m2
02:14 47.4 °F /  8.6 °C 34 °F /  1.1 °C 30.02in /  1016.5hPa WNW 0.9mph /  1.4km/h 10mph /  16.1km/h 59.3% 0.00in /  0mm 0 W/m2
02:19 47.3 °F /  8.5 °C 33.7 °F /  0.9 °C 30.02in /  1016.5hPa WNW 0.7mph /  1.1km/h 10mph /  16.1km/h 59% 0.00in /  0mm 0 W/m2
02:24 47.3 °F /  8.5 °C 33.7 °F /  0.9 °C 30.02in /  1016.5hPa WNW 2.4mph /  3.9km/h 12mph /  19.3km/h 59% 0.00in /  0mm 0 W/m2
02:29 47.3 °F /  8.5 °C 33.7 °F /  0.9 °C 30.02in /  1016.5hPa WNW 1.8mph /  2.9km/h 12mph /  19.3km/h 59% 0.00in /  0mm 0 W/m2
02:34 47.4 °F /  8.6 °C 33.7 °F /  0.9 °C 30.03in /  1016.8hPa WNW 1mph /  1.6km/h 12mph /  19.3km/h 58.7% 0.00in /  0mm 0 W/m2
02:38 47.4 °F /  8.6 °C 33.6 °F /  0.9 °C 30.03in /  1016.8hPa Calm   9mph /  14.5km/h 58.5% 0.00in /  0mm 0 W/m2
Hartford County Weather
Compliments of Weather Underground - 4 mb